Time;durP1;ratioP1;P1;durP2;ratioP2;P2;SDS_P1;SDS_P2;PMS_P1;PMS_P2;Temp;Humidity;BMP_temperature;BMP_pressure;BME280_temperature;BME280_humidity;BME280_pressure;Samples;Min_cycle;Max_cycle;Signal;HPM_P1;HPM_P2
2023/08/27 00:01:54;;;;;;;;;;;;;;;;;;5034997;28;19929;-68
2023/08/27 00:04:20;;;;;;;;;;;;;;;;;;5028668;28;19929;-70
2023/08/27 00:06:46;;;;;;;;;;;;;;;;;;5030941;28;19933;-69
2023/08/27 00:09:12;;;;;;;;;;;;;;;;;;5040743;28;19999;-68
2023/08/27 00:11:37;;;;;;;;;;;;;;;;;;5036074;28;20264;-69
2023/08/27 00:14:03;;;;;;;;;;;;;;;;;;5039849;28;20322;-69
2023/08/27 00:16:29;;;;;;;;;;;;;;;;;;5042103;28;20382;-69
2023/08/27 00:18:55;;;;;;;;;;;;;;;;;;5036401;28;19929;-69
2023/08/27 00:21:21;;;;;;;;;;;;;;;;;;5031542;28;19996;-69
2023/08/27 00:23:47;;;;;;;;;;;;;;;;;;5033191;28;20020;-69
2023/08/27 00:26:13;;;;;;;;;;;;;;;;;;5042989;28;19931;-68
2023/08/27 00:28:39;;;;;;;;;;;;;;;;;;5031977;28;20023;-68
2023/08/27 00:31:05;;;;;;;;;;;;;;;;;;5031150;28;20290;-69
2023/08/27 00:33:31;;;;;;;;;;;;;;;;;;5033475;28;19925;-69
2023/08/27 00:35:57;;;;;;;;;;;;;;;;;;5030210;28;20575;-69
2023/08/27 00:38:23;;;;;;;;;;;;;;;;;;5027201;28;20025;-68
2023/08/27 00:40:49;;;;;;;;;;;;;;;;;;5039830;28;19924;-68
2023/08/27 00:43:15;;;;;;;;;;;;;;;;;;5040381;28;19968;-68
2023/08/27 00:45:41;;;;;;;;;;;;;;;;;;5043984;28;19925;-69
2023/08/27 00:48:07;;;;;;;;;;;;;;;;;;5037074;28;19925;-68
2023/08/27 00:50:32;;;;;;;;;;;;;;;;;;5041253;28;19924;-68
2023/08/27 00:52:58;;;;;;;;;;;;;;;;;;5035038;28;19925;-69
2023/08/27 00:55:24;;;;;;;;;;;;;;;;;;5034637;28;19925;-68
2023/08/27 00:57:51;;;;;;;;;;;;;;;;;;5032623;28;20011;-68
2023/08/27 01:00:16;;;;;;;;;;;;;;;;;;5029943;28;19929;-68
2023/08/27 01:02:44;;;;;;;;;;;;;;;;;;5028855;28;19936;-68
2023/08/27 01:05:09;;;;;;;;;;;;;;;;;;5026359;28;19931;-68
2023/08/27 01:07:35;;;;;;;;;;;;;;;;;;5031208;28;19924;-68
2023/08/27 01:10:02;;;;;;;;;;;;;;;;;;5120132;22;20339;-60
2023/08/27 01:12:28;;;;;;;;;;;;;;;;;;5027020;28;20003;-60
2023/08/27 01:14:54;;;;;;;;;;;;;;;;;;5030477;28;20031;-60
2023/08/27 01:17:20;;;;;;;;;;;;;;;;;;5021045;28;19969;-59
2023/08/27 01:19:46;;;;;;;;;;;;;;;;;;5034039;28;19929;-60
2023/08/27 01:22:12;;;;;;;;;;;;;;;;;;5041306;28;19935;-60
2023/08/27 01:24:38;;;;;;;;;;;;;;;;;;5040441;28;19924;-60
2023/08/27 01:27:04;;;;;;;;;;;;;;;;;;5037037;28;20595;-60
2023/08/27 01:29:29;;;;;;;;;;;;;;;;;;5041490;28;19972;-60
2023/08/27 01:31:55;;;;;;;;;;;;;;;;;;5040507;28;20374;-60
2023/08/27 01:34:21;;;;;;;;;;;;;;;;;;5041422;28;20282;-60
2023/08/27 01:36:47;;;;;;;;;;;;;;;;;;5017445;28;19924;-61
2023/08/27 01:39:14;;;;;;;;;;;;;;;;;;5041201;28;19935;-60
2023/08/27 01:41:40;;;;;;;;;;;;;;;;;;5040827;28;20298;-60
2023/08/27 01:44:05;;;;;;;;;;;;;;;;;;5043162;28;19925;-60
2023/08/27 01:46:31;;;;;;;;;;;;;;;;;;5041121;28;19925;-60
2023/08/27 01:48:57;;;;;;;;;;;;;;;;;;5023669;28;19925;-60
2023/08/27 01:51:23;;;;;;;;;;;;;;;;;;5036826;28;19920;-60
2023/08/27 01:53:49;;;;;;;;;;;;;;;;;;5038959;28;19932;-60
2023/08/27 01:56:15;;;;;;;;;;;;;;;;;;5023607;28;20296;-59
2023/08/27 01:58:41;;;;;;;;;;;;;;;;;;5022730;28;20306;-60
2023/08/27 02:01:07;;;;;;;;;;;;;;;;;;5036647;28;19940;-60
2023/08/27 02:03:33;;;;;;;;;;;;;;;;;;5037354;28;19940;-60
2023/08/27 02:05:59;;;;;;;;;;;;;;;;;;5015810;28;19925;-60
2023/08/27 02:08:25;;;;;;;;;;;;;;;;;;5015888;28;19929;-60
2023/08/27 02:10:50;;;;;;;;;;;;;;;;;;5034776;28;19925;-59
2023/08/27 02:13:16;;;;;;;;;;;;;;;;;;5040692;28;19929;-59
2023/08/27 02:15:43;;;;;;;;;;;;;;;;;;5040954;28;19970;-60
2023/08/27 02:18:08;;;;;;;;;;;;;;;;;;5037002;28;19932;-59
2023/08/27 02:20:34;;;;;;;;;;;;;;;;;;5037182;28;19979;-59
2023/08/27 02:23:00;;;;;;;;;;;;;;;;;;5040626;28;19929;-59
2023/08/27 02:25:26;;;;;;;;;;;;;;;;;;5041157;28;19929;-60
2023/08/27 02:27:52;;;;;;;;;;;;;;;;;;5040306;28;20019;-60
2023/08/27 02:30:18;;;;;;;;;;;;;;;;;;5031646;28;20747;-59
2023/08/27 02:32:44;;;;;;;;;;;;;;;;;;5035903;28;20000;-60
2023/08/27 02:35:10;;;;;;;;;;;;;;;;;;5040867;28;20028;-60
2023/08/27 02:37:36;;;;;;;;;;;;;;;;;;5034054;28;19952;-60
2023/08/27 02:40:02;;;;;;;;;;;;;;;;;;5010420;28;20967;-60
2023/08/27 02:42:28;;;;;;;;;;;;;;;;;;5041815;28;19965;-59
2023/08/27 02:44:54;;;;;;;;;;;;;;;;;;5042747;28;20369;-59
2023/08/27 02:47:20;;;;;;;;;;;;;;;;;;5041569;28;19970;-60
2023/08/27 02:49:46;;;;;;;;;;;;;;;;;;5041635;28;20353;-59
2023/08/27 02:52:12;;;;;;;;;;;;;;;;;;5037641;28;19929;-60
2023/08/27 02:54:38;;;;;;;;;;;;;;;;;;5037224;28;19932;-60
2023/08/27 02:57:04;;;;;;;;;;;;;;;;;;5036228;28;20281;-60
2023/08/27 02:59:30;;;;;;;;;;;;;;;;;;5041831;28;19925;-60
2023/08/27 03:01:56;;;;;;;;;;;;;;;;;;5044627;28;19925;-61
2023/08/27 03:04:22;;;;;;;;;;;;;;;;;;5037929;28;20373;-60
2023/08/27 03:06:48;;;;;;;;;;;;;;;;;;5037662;28;19932;-60
2023/08/27 03:09:15;;;;;;;;;;;;;;;;;;5037337;28;19924;-60
2023/08/27 03:11:41;;;;;;;;;;;;;;;;;;5042088;28;19932;-60
2023/08/27 03:14:07;;;;;;;;;;;;;;;;;;5028016;28;19925;-60
2023/08/27 03:16:33;;;;;;;;;;;;;;;;;;5030570;28;19936;-60
2023/08/27 03:18:59;;;;;;;;;;;;;;;;;;5037794;28;19925;-60
2023/08/27 03:21:25;;;;;;;;;;;;;;;;;;5020792;28;19924;-60
2023/08/27 03:23:51;;;;;;;;;;;;;;;;;;5045426;28;19932;-60
2023/08/27 03:26:16;;;;;;;;;;;;;;;;;;5041318;28;19935;-60
2023/08/27 03:28:42;;;;;;;;;;;;;;;;;;5039799;28;19925;-60
2023/08/27 03:31:08;;;;;;;;;;;;;;;;;;5040849;28;19979;-61
2023/08/27 03:33:34;;;;;;;;;;;;;;;;;;5042203;28;19992;-60
2023/08/27 03:36:00;;;;;;;;;;;;;;;;;;5039086;28;19971;-60
2023/08/27 03:38:26;;;;;;;;;;;;;;;;;;5041151;28;19928;-62
2023/08/27 03:40:52;;;;;;;;;;;;;;;;;;5038791;28;19932;-61
2023/08/27 03:43:18;;;;;;;;;;;;;;;;;;5032079;28;19971;-60
2023/08/27 03:45:44;;;;;;;;;;;;;;;;;;5044062;28;19925;-60
2023/08/27 03:48:10;;;;;;;;;;;;;;;;;;5044394;28;20429;-60
2023/08/27 03:50:36;;;;;;;;;;;;;;;;;;5042187;28;19932;-60
2023/08/27 03:53:02;;;;;;;;;;;;;;;;;;5041295;28;19928;-60
2023/08/27 03:55:28;;;;;;;;;;;;;;;;;;5040522;28;19932;-60
2023/08/27 03:57:54;;;;;;;;;;;;;;;;;;5042125;28;19964;-60
2023/08/27 04:00:20;;;;;;;;;;;;;;;;;;5038492;28;19960;-60
2023/08/27 04:02:46;;;;;;;;;;;;;;;;;;5041474;28;20143;-60
2023/08/27 04:05:12;;;;;;;;;;;;;;;;;;5018025;28;20319;-60
2023/08/27 04:07:38;;;;;;;;;;;;;;;;;;5030761;28;19925;-60
2023/08/27 04:10:04;;;;;;;;;;;;;;;;;;5034069;28;19974;-60
2023/08/27 04:12:30;;;;;;;;;;;;;;;;;;5038237;28;19929;-60
2023/08/27 04:14:57;;;;;;;;;;;;;;;;;;5032581;28;19931;-60
2023/08/27 04:17:23;;;;;;;;;;;;;;;;;;5036393;28;19990;-60
2023/08/27 04:19:48;;;;;;;;;;;;;;;;;;5037268;28;20402;-60
2023/08/27 04:22:14;;;;;;;;;;;;;;;;;;5040453;28;19972;-60
2023/08/27 04:24:40;;;;;;;;;;;;;;;;;;5042644;28;19931;-60
2023/08/27 04:27:06;;;;;;;;;;;;;;;;;;5041563;28;19925;-60
2023/08/27 04:29:32;;;;;;;;;;;;;;;;;;5040797;28;19924;-60
2023/08/27 04:31:58;;;;;;;;;;;;;;;;;;5036890;28;19932;-60
2023/08/27 04:34:24;;;;;;;;;;;;;;;;;;5038971;28;20386;-62
2023/08/27 04:36:50;;;;;;;;;;;;;;;;;;5039741;28;19931;-60
2023/08/27 04:39:16;;;;;;;;;;;;;;;;;;5043003;28;19929;-60
2023/08/27 04:41:42;;;;;;;;;;;;;;;;;;5030638;28;19995;-60
2023/08/27 04:44:08;;;;;;;;;;;;;;;;;;5035250;28;20408;-60
2023/08/27 04:46:34;;;;;;;;;;;;;;;;;;5044358;28;19925;-60
2023/08/27 04:49:00;;;;;;;;;;;;;;;;;;5040793;28;20382;-60
2023/08/27 04:51:28;;;;;;;;;;;;;;;;;;5040640;28;19971;-60
2023/08/27 04:53:54;;;;;;;;;;;;;;;;;;5024378;28;19925;-60
2023/08/27 04:56:20;;;;;;;;;;;;;;;;;;5037527;28;20412;-60
2023/08/27 04:58:46;;;;;;;;;;;;;;;;;;5038106;28;20432;-60
2023/08/27 05:01:12;;;;;;;;;;;;;;;;;;5038126;28;19943;-60
2023/08/27 05:03:38;;;;;;;;;;;;;;;;;;5042125;28;19925;-60
2023/08/27 05:06:04;;;;;;;;;;;;;;;;;;5040862;28;19920;-61
2023/08/27 05:08:31;;;;;;;;;;;;;;;;;;5042389;28;20061;-60
2023/08/27 05:10:57;;;;;;;;;;;;;;;;;;5041531;28;19987;-61
2023/08/27 05:13:23;;;;;;;;;;;;;;;;;;5041943;28;20797;-62
2023/08/27 05:15:49;;;;;;;;;;;;;;;;;;5024385;28;20003;-61
2023/08/27 05:18:17;;;;;;;;;;;;;;;;;;5041871;28;20214;-61
2023/08/27 05:20:43;;;;;;;;;;;;;;;;;;5039437;28;20002;-60
2023/08/27 05:23:09;;;;;;;;;;;;;;;;;;5023743;28;20730;-60
2023/08/27 05:25:35;;;;;;;;;;;;;;;;;;5042372;28;20015;-61
2023/08/27 05:28:01;;;;;;;;;;;;;;;;;;5038856;28;19971;-60
2023/08/27 05:30:26;;;;;;;;;;;;;;;;;;5040120;28;19964;-61
2023/08/27 05:32:53;;;;;;;;;;;;;;;;;;5041769;28;20404;-61
2023/08/27 05:35:19;;;;;;;;;;;;;;;;;;5038461;28;19925;-61
2023/08/27 05:37:45;;;;;;;;;;;;;;;;;;5038876;28;20341;-60
2023/08/27 05:40:11;;;;;;;;;;;;;;;;;;5041996;28;19951;-61
2023/08/27 05:42:37;;;;;;;;;;;;;;;;;;5041868;28;19978;-61
2023/08/27 05:45:03;;;;;;;;;;;;;;;;;;5041504;28;19935;-61
2023/08/27 05:47:29;;;;;;;;;;;;;;;;;;5041727;28;19925;-61
2023/08/27 05:49:55;;;;;;;;;;;;;;;;;;5041666;28;19928;-61
2023/08/27 05:52:21;;;;;;;;;;;;;;;;;;5041319;28;20000;-61
2023/08/27 05:54:46;;;;;;;;;;;;;;;;;;5040903;28;19968;-60
2023/08/27 05:57:12;;;;;;;;;;;;;;;;;;5040816;28;19928;-59
2023/08/27 05:59:38;;;;;;;;;;;;;;;;;;5041132;28;20428;-60
2023/08/27 06:02:04;;;;;;;;;;;;;;;;;;5041822;28;19925;-60
2023/08/27 06:04:30;;;;;;;;;;;;;;;;;;5038545;28;20970;-61
2023/08/27 06:06:56;;;;;;;;;;;;;;;;;;5041859;28;19925;-61
2023/08/27 06:09:22;;;;;;;;;;;;;;;;;;5036570;28;19929;-61
2023/08/27 06:11:48;;;;;;;;;;;;;;;;;;5036639;28;19932;-60
2023/08/27 06:14:14;;;;;;;;;;;;;;;;;;5033558;28;19933;-61
2023/08/27 06:16:40;;;;;;;;;;;;;;;;;;5035820;28;19974;-61
2023/08/27 06:19:06;;;;;;;;;;;;;;;;;;5030568;28;19932;-63
2023/08/27 06:21:32;;;;;;;;;;;;;;;;;;5029302;28;19977;-61
2023/08/27 06:23:58;;;;;;;;;;;;;;;;;;5032019;28;19932;-61
2023/08/27 06:26:24;;;;;;;;;;;;;;;;;;5039504;28;19940;-61
2023/08/27 06:28:50;;;;;;;;;;;;;;;;;;5031851;28;19981;-60
2023/08/27 06:31:16;;;;;;;;;;;;;;;;;;5040044;28;20023;-60
2023/08/27 06:33:42;;;;;;;;;;;;;;;;;;5038717;28;19928;-60
2023/08/27 06:36:08;;;;;;;;;;;;;;;;;;5041274;28;19925;-60
2023/08/27 06:38:34;;;;;;;;;;;;;;;;;;5040518;28;19929;-61
2023/08/27 06:41:00;;;;;;;;;;;;;;;;;;5038628;28;19925;-60
2023/08/27 06:43:26;;;;;;;;;;;;;;;;;;5044359;28;20083;-63
2023/08/27 06:45:52;;;;;;;;;;;;;;;;;;5045891;28;20138;-60
2023/08/27 06:48:18;;;;;;;;;;;;;;;;;;5046066;28;20014;-60
2023/08/27 06:50:43;;;;;;;;;;;;;;;;;;5044273;28;20691;-60
2023/08/27 06:53:09;;;;;;;;;;;;;;;;;;5029589;28;19932;-60
2023/08/27 06:55:35;;;;;;;;;;;;;;;;;;5045587;28;20396;-60
2023/08/27 06:58:01;;;;;;;;;;;;;;;;;;5041265;28;20554;-60
2023/08/27 07:00:27;;;;;;;;;;;;;;;;;;5043145;28;20390;-60
2023/08/27 07:02:53;;;;;;;;;;;;;;;;;;5042061;28;19932;-60
2023/08/27 07:05:19;;;;;;;;;;;;;;;;;;5043077;28;19925;-60
2023/08/27 07:07:45;;;;;;;;;;;;;;;;;;5044877;28;19932;-60
2023/08/27 07:10:14;;;;;;;;;;;;;;;;;;5044837;28;19931;-60
2023/08/27 07:12:40;;;;;;;;;;;;;;;;;;5040224;28;19928;-61
2023/08/27 07:15:07;;;;;;;;;;;;;;;;;;5039273;28;19991;-60
2023/08/27 07:17:33;;;;;;;;;;;;;;;;;;5022674;28;20406;-61
2023/08/27 07:19:59;;;;;;;;;;;;;;;;;;5044029;28;19925;-60
2023/08/27 07:22:25;;;;;;;;;;;;;;;;;;5036136;28;19925;-61
2023/08/27 07:24:51;;;;;;;;;;;;;;;;;;5045419;28;19925;-61
2023/08/27 07:27:17;;;;;;;;;;;;;;;;;;5043895;28;19935;-60
2023/08/27 07:29:43;;;;;;;;;;;;;;;;;;5036071;28;19932;-61
2023/08/27 07:32:09;;;;;;;;;;;;;;;;;;5043803;28;19933;-61
2023/08/27 07:34:35;;;;;;;;;;;;;;;;;;5043566;28;19982;-61
2023/08/27 07:37:01;;;;;;;;;;;;;;;;;;5039661;28;19932;-61
2023/08/27 07:39:27;;;;;;;;;;;;;;;;;;5044095;28;20608;-61
2023/08/27 07:41:53;;;;;;;;;;;;;;;;;;5037026;28;20573;-58
2023/08/27 07:44:19;;;;;;;;;;;;;;;;;;5035400;28;19929;-61
2023/08/27 07:46:45;;;;;;;;;;;;;;;;;;5026787;28;19925;-60
2023/08/27 07:49:11;;;;;;;;;;;;;;;;;;5040388;28;19931;-60
2023/08/27 07:51:37;;;;;;;;;;;;;;;;;;5042564;28;19925;-60
2023/08/27 07:54:03;;;;;;;;;;;;;;;;;;5039739;28;19928;-61
2023/08/27 07:56:29;;;;;;;;;;;;;;;;;;5040963;28;19925;-60
2023/08/27 07:58:55;;;;;;;;;;;;;;;;;;5039758;28;19925;-61
2023/08/27 08:01:21;;;;;;;;;;;;;;;;;;5037259;28;19924;-61
2023/08/27 08:03:47;;;;;;;;;;;;;;;;;;5035844;28;19928;-61
2023/08/27 08:06:13;;;;;;;;;;;;;;;;;;5031485;28;20122;-61
2023/08/27 08:08:39;;;;;;;;;;;;;;;;;;5041262;28;19933;-61
2023/08/27 08:11:05;;;;;;;;;;;;;;;;;;5036287;28;19947;-61
2023/08/27 08:13:36;;;;;;;;;;;;;;;;;;5030667;28;19933;-61
2023/08/27 08:16:02;;;;;;;;;;;;;;;;;;5026917;28;19984;-61
2023/08/27 08:18:28;;;;;;;;;;;;;;;;;;5039629;28;19929;-61
2023/08/27 08:20:54;;;;;;;;;;;;;;;;;;5024146;28;19929;-63
2023/08/27 08:23:20;;;;;;;;;;;;;;;;;;5040125;28;19925;-61
2023/08/27 08:25:45;;;;;;;;;;;;;;;;;;5043086;28;20331;-61
2023/08/27 08:28:11;;;;;;;;;;;;;;;;;;5041801;28;19932;-61
2023/08/27 08:30:37;;;;;;;;;;;;;;;;;;5042769;28;19936;-61
2023/08/27 08:33:03;;;;;;;;;;;;;;;;;;5026087;28;19933;-61
2023/08/27 08:35:29;;;;;;;;;;;;;;;;;;5038789;28;19950;-61
2023/08/27 08:37:55;;;;;;;;;;;;;;;;;;5038689;28;19928;-60
2023/08/27 08:40:21;;;;;;;;;;;;;;;;;;5043730;28;19967;-61
2023/08/27 08:42:47;;;;;;;;;;;;;;;;;;5035686;28;20321;-60
2023/08/27 08:45:13;;;;;;;;;;;;;;;;;;5038112;28;19932;-60
2023/08/27 08:47:39;;;;;;;;;;;;;;;;;;5043301;28;19925;-61
2023/08/27 08:50:05;;;;;;;;;;;;;;;;;;5040063;28;19925;-60
2023/08/27 08:52:32;;;;;;;;;;;;;;;;;;5043193;28;20019;-60
2023/08/27 08:54:57;;;;;;;;;;;;;;;;;;5030793;28;20468;-61
2023/08/27 08:57:23;;;;;;;;;;;;;;;;;;5043582;28;20378;-60
2023/08/27 08:59:49;;;;;;;;;;;;;;;;;;5033235;28;20414;-60
2023/08/27 09:02:15;;;;;;;;;;;;;;;;;;5016112;28;20319;-61
2023/08/27 09:04:42;;;;;;;;;;;;;;;;;;5031021;28;19986;-60
2023/08/27 09:07:08;;;;;;;;;;;;;;;;;;5040613;28;19935;-61
2023/08/27 09:09:34;;;;;;;;;;;;;;;;;;5031867;28;20404;-61
2023/08/27 09:12:00;;;;;;;;;;;;;;;;;;5037258;28;19929;-61
2023/08/27 09:14:25;;;;;;;;;;;;;;;;;;5033578;28;19936;-60
2023/08/27 09:16:51;;;;;;;;;;;;;;;;;;5038040;28;19979;-60
2023/08/27 09:19:17;;;;;;;;;;;;;;;;;;5030706;28;19956;-60
2023/08/27 09:21:44;;;;;;;;;;;;;;;;;;5026855;28;19929;-60
2023/08/27 09:24:10;;;;;;;;;;;;;;;;;;5034866;28;19983;-60
2023/08/27 09:26:38;;;;;;;;;;;;;;;;;;5026438;28;20260;-60
2023/08/27 09:29:05;;;;;;;;;;;;;;;;;;5035017;28;20034;-61
2023/08/27 09:31:31;;;;;;;;;;;;;;;;;;5030563;28;19936;-61
2023/08/27 09:33:56;;;;;;;;;;;;;;;;;;5034249;28;19929;-62
2023/08/27 09:36:22;;;;;;;;;;;;;;;;;;5032629;28;19929;-60
2023/08/27 09:38:48;;;;;;;;;;;;;;;;;;5036082;28;19975;-61
2023/08/27 09:41:14;;;;;;;;;;;;;;;;;;5032912;28;20291;-61
2023/08/27 09:43:40;;;;;;;;;;;;;;;;;;5040732;28;20574;-61
2023/08/27 09:46:06;;;;;;;;;;;;;;;;;;5040060;28;20453;-61
2023/08/27 09:48:32;;;;;;;;;;;;;;;;;;5038263;28;19925;-62
2023/08/27 09:50:58;;;;;;;;;;;;;;;;;;5038310;28;19952;-62
2023/08/27 09:53:24;;;;;;;;;;;;;;;;;;5037536;28;20011;-61
2023/08/27 09:55:50;;;;;;;;;;;;;;;;;;5036586;28;19935;-61
2023/08/27 09:58:16;;;;;;;;;;;;;;;;;;5025204;28;19925;-61
2023/08/27 10:00:42;;;;;;;;;;;;;;;;;;5024782;28;19968;-61
2023/08/27 10:03:08;;;;;;;;;;;;;;;;;;5025917;28;19999;-61
2023/08/27 10:05:34;;;;;;;;;;;;;;;;;;5010831;28;19951;-60
2023/08/27 10:08:00;;;;;;;;;;;;;;;;;;5027221;28;19929;-61
2023/08/27 10:10:26;;;;;;;;;;;;;;;;;;5032594;28;19929;-62
2023/08/27 10:12:52;;;;;;;;;;;;;;;;;;5038698;28;20025;-62
2023/08/27 10:15:18;;;;;;;;;;;;;;;;;;5034078;28;19935;-60
2023/08/27 10:17:44;;;;;;;;;;;;;;;;;;5032875;28;19935;-62
2023/08/27 10:20:10;;;;;;;;;;;;;;;;;;5026396;28;20470;-61
2023/08/27 10:22:36;;;;;;;;;;;;;;;;;;5030442;28;19929;-60
2023/08/27 10:25:04;;;;;;;;;;;;;;;;;;5039381;28;19959;-61
2023/08/27 10:27:30;;;;;;;;;;;;;;;;;;5037447;28;20597;-61
2023/08/27 10:29:56;;;;;;;;;;;;;;;;;;5027646;28;19933;-60
2023/08/27 10:32:22;;;;;;;;;;;;;;;;;;5037752;28;20369;-61
2023/08/27 10:34:48;;;;;;;;;;;;;;;;;;5023671;28;20402;-61
2023/08/27 10:37:14;;;;;;;;;;;;;;;;;;5030792;28;19929;-61
2023/08/27 10:39:39;;;;;;;;;;;;;;;;;;5027584;28;19929;-61
2023/08/27 10:42:05;;;;;;;;;;;;;;;;;;5027849;28;19921;-61
2023/08/27 10:44:31;;;;;;;;;;;;;;;;;;5028409;28;20386;-61
2023/08/27 10:46:57;;;;;;;;;;;;;;;;;;5016756;28;20068;-62
2023/08/27 10:49:23;;;;;;;;;;;;;;;;;;5029968;28;20019;-60
2023/08/27 10:51:49;;;;;;;;;;;;;;;;;;5039636;28;19982;-61
2023/08/27 10:54:15;;;;;;;;;;;;;;;;;;5028675;28;19933;-61
2023/08/27 10:56:41;;;;;;;;;;;;;;;;;;5039516;28;20111;-61
2023/08/27 10:59:07;;;;;;;;;;;;;;;;;;5034294;28;20113;-60
2023/08/27 11:01:33;;;;;;;;;;;;;;;;;;5039505;28;20493;-61
2023/08/27 11:03:59;;;;;;;;;;;;;;;;;;5012035;28;19986;-62
2023/08/27 11:06:25;;;;;;;;;;;;;;;;;;5033771;28;19925;-61
2023/08/27 11:08:52;;;;;;;;;;;;;;;;;;5011221;28;19936;-61
2023/08/27 11:11:18;;;;;;;;;;;;;;;;;;5028137;28;19986;-61
2023/08/27 11:13:47;;;;;;;;;;;;;;;;;;5027394;28;19937;-61
2023/08/27 11:16:13;;;;;;;;;;;;;;;;;;5038633;28;19929;-62
2023/08/27 11:18:39;;;;;;;;;;;;;;;;;;5038654;28;19935;-61
2023/08/27 11:21:05;;;;;;;;;;;;;;;;;;5023852;28;19986;-61
2023/08/27 11:23:31;;;;;;;;;;;;;;;;;;5038853;28;19929;-61
2023/08/27 11:25:57;;;;;;;;;;;;;;;;;;5039601;28;20019;-62
2023/08/27 11:28:23;;;;;;;;;;;;;;;;;;5040367;28;20019;-61
2023/08/27 11:30:49;;;;;;;;;;;;;;;;;;5036523;28;19937;-62
2023/08/27 11:33:21;;;;;;;;;;;;;;;;;;5038655;28;19933;-63
2023/08/27 11:35:47;;;;;;;;;;;;;;;;;;5032091;28;19929;-61
2023/08/27 11:38:13;;;;;;;;;;;;;;;;;;5038882;28;19929;-61
2023/08/27 11:40:39;;;;;;;;;;;;;;;;;;5036061;28;19925;-62
2023/08/27 11:43:04;;;;;;;;;;;;;;;;;;5031820;28;20019;-62
2023/08/27 11:45:30;;;;;;;;;;;;;;;;;;5042882;28;19929;-61
2023/08/27 11:47:57;;;;;;;;;;;;;;;;;;5041056;28;19974;-62
2023/08/27 11:50:23;;;;;;;;;;;;;;;;;;5040572;28;19925;-61
2023/08/27 11:52:49;;;;;;;;;;;;;;;;;;5033288;28;19951;-61
2023/08/27 11:55:20;;;;;;;;;;;;;;;;;;5035707;28;20015;-61
2023/08/27 11:57:46;;;;;;;;;;;;;;;;;;5038062;28;20123;-61
2023/08/27 12:00:12;;;;;;;;;;;;;;;;;;5022550;28;20011;-61
2023/08/27 12:02:38;;;;;;;;;;;;;;;;;;5032135;28;20466;-61
2023/08/27 12:05:04;;;;;;;;;;;;;;;;;;5041065;28;20018;-61
2023/08/27 12:07:31;;;;;;;;;;;;;;;;;;5033658;28;20413;-61
2023/08/27 12:09:57;;;;;;;;;;;;;;;;;;5039268;28;19932;-62
2023/08/27 12:12:23;;;;;;;;;;;;;;;;;;5025479;28;20013;-61
2023/08/27 12:14:49;;;;;;;;;;;;;;;;;;5025975;28;19929;-60
2023/08/27 12:17:15;;;;;;;;;;;;;;;;;;5030820;28;19929;-60
2023/08/27 12:19:42;;;;;;;;;;;;;;;;;;5028017;28;20628;-61
2023/08/27 12:22:08;;;;;;;;;;;;;;;;;;5028437;28;19929;-61
2023/08/27 12:24:34;;;;;;;;;;;;;;;;;;5031649;28;20386;-61
2023/08/27 12:27:00;;;;;;;;;;;;;;;;;;5032523;28;19932;-61
2023/08/27 12:29:26;;;;;;;;;;;;;;;;;;5037772;28;20373;-61
2023/08/27 12:31:52;;;;;;;;;;;;;;;;;;5023137;28;19987;-61
2023/08/27 12:34:18;;;;;;;;;;;;;;;;;;5023040;28;19925;-61
2023/08/27 12:36:44;;;;;;;;;;;;;;;;;;5041541;28;19933;-60
2023/08/27 12:39:10;;;;;;;;;;;;;;;;;;5038850;28;19924;-61
2023/08/27 12:41:36;;;;;;;;;;;;;;;;;;5028435;28;19932;-61
2023/08/27 12:44:03;;;;;;;;;;;;;;;;;;5040587;28;19929;-61
2023/08/27 12:46:29;;;;;;;;;;;;;;;;;;5041371;28;19933;-61
2023/08/27 12:48:54;;;;;;;;;;;;;;;;;;5038089;28;20007;-60
2023/08/27 12:51:20;;;;;;;;;;;;;;;;;;5032911;28;19947;-60
2023/08/27 12:53:46;;;;;;;;;;;;;;;;;;5032659;28;20440;-60
2023/08/27 12:56:12;;;;;;;;;;;;;;;;;;5039114;28;19932;-61
2023/08/27 12:58:38;;;;;;;;;;;;;;;;;;5039071;28;19929;-61
2023/08/27 13:01:04;;;;;;;;;;;;;;;;;;5037456;28;20418;-60
2023/08/27 13:03:30;;;;;;;;;;;;;;;;;;5037046;28;19929;-61
2023/08/27 13:05:56;;;;;;;;;;;;;;;;;;5036177;28;20386;-62
2023/08/27 13:08:22;;;;;;;;;;;;;;;;;;5041495;28;19952;-61
2023/08/27 13:10:48;;;;;;;;;;;;;;;;;;5028857;28;19936;-61
2023/08/27 13:13:14;;;;;;;;;;;;;;;;;;5029703;28;20254;-61
2023/08/27 13:15:40;;;;;;;;;;;;;;;;;;5036152;28;19932;-61
2023/08/27 13:18:06;;;;;;;;;;;;;;;;;;5035631;28;19924;-61
2023/08/27 13:20:32;;;;;;;;;;;;;;;;;;5039017;28;20345;-62
2023/08/27 13:22:58;;;;;;;;;;;;;;;;;;5029427;28;20019;-62
2023/08/27 13:25:24;;;;;;;;;;;;;;;;;;5039039;28;20609;-61
2023/08/27 13:27:50;;;;;;;;;;;;;;;;;;5031259;28;20024;-61
2023/08/27 13:30:16;;;;;;;;;;;;;;;;;;5038070;28;19936;-61
2023/08/27 13:32:42;;;;;;;;;;;;;;;;;;5033283;28;20686;-61
2023/08/27 13:35:07;;;;;;;;;;;;;;;;;;5018123;28;20624;-61
2023/08/27 13:37:33;;;;;;;;;;;;;;;;;;5031347;28;20657;-61
2023/08/27 13:39:59;;;;;;;;;;;;;;;;;;5032538;28;19986;-61
2023/08/27 13:42:25;;;;;;;;;;;;;;;;;;5023212;28;19929;-61
2023/08/27 13:44:51;;;;;;;;;;;;;;;;;;5032707;28;19966;-61
2023/08/27 13:47:17;;;;;;;;;;;;;;;;;;5040503;28;19929;-61
2023/08/27 13:49:43;;;;;;;;;;;;;;;;;;5033227;28;20012;-61
2023/08/27 13:52:09;;;;;;;;;;;;;;;;;;5032031;28;19929;-61
2023/08/27 13:54:35;;;;;;;;;;;;;;;;;;5028847;28;19980;-61
2023/08/27 13:57:01;;;;;;;;;;;;;;;;;;5038493;28;19972;-61
2023/08/27 13:59:27;;;;;;;;;;;;;;;;;;5034778;28;20012;-62
2023/08/27 14:01:53;;;;;;;;;;;;;;;;;;5036749;28;19990;-61
2023/08/27 14:04:20;;;;;;;;;;;;;;;;;;5034262;28;20382;-61
2023/08/27 14:06:46;;;;;;;;;;;;;;;;;;5029306;28;20275;-61
2023/08/27 14:09:15;;;;;;;;;;;;;;;;;;5029232;28;19933;-61
2023/08/27 14:11:41;;;;;;;;;;;;;;;;;;5029322;28;19925;-61
2023/08/27 14:14:07;;;;;;;;;;;;;;;;;;5029708;28;19925;-61
2023/08/27 14:16:33;;;;;;;;;;;;;;;;;;5024279;28;19975;-61
2023/08/27 14:18:59;;;;;;;;;;;;;;;;;;5039018;28;20333;-61
2023/08/27 14:21:25;;;;;;;;;;;;;;;;;;5040173;28;19960;-61
2023/08/27 14:23:51;;;;;;;;;;;;;;;;;;5035590;28;19976;-61
2023/08/27 14:26:17;;;;;;;;;;;;;;;;;;5021102;28;19979;-61
2023/08/27 14:28:43;;;;;;;;;;;;;;;;;;5036626;28;19991;-61
2023/08/27 14:31:09;;;;;;;;;;;;;;;;;;5038360;28;19928;-61
2023/08/27 14:33:35;;;;;;;;;;;;;;;;;;5037110;28;19997;-60
2023/08/27 14:36:01;;;;;;;;;;;;;;;;;;5036760;28;19986;-61
2023/08/27 14:38:27;;;;;;;;;;;;;;;;;;5036621;28;20373;-61
2023/08/27 14:40:53;;;;;;;;;;;;;;;;;;5036479;28;19932;-60
2023/08/27 14:43:19;;;;;;;;;;;;;;;;;;5040767;28;19929;-61
2023/08/27 14:45:45;;;;;;;;;;;;;;;;;;5039532;28;19924;-61
2023/08/27 14:48:10;;;;;;;;;;;;;;;;;;5038754;28;19925;-61
2023/08/27 14:50:36;;;;;;;;;;;;;;;;;;5040504;28;20019;-61
2023/08/27 14:53:05;;;;;;;;;;;;;;;;;;5039455;28;20371;-61
2023/08/27 14:55:31;;;;;;;;;;;;;;;;;;5038719;28;19933;-61
2023/08/27 14:57:57;;;;;;;;;;;;;;;;;;5043932;28;20468;-61
2023/08/27 15:00:24;;;;;;;;;;;;;;;;;;5043426;28;20409;-61
2023/08/27 15:02:49;;;;;;;;;;;;;;;;;;5042683;28;20383;-61
2023/08/27 15:05:16;;;;;;;;;;;;;;;;;;5025452;28;19935;-61
2023/08/27 15:07:42;;;;;;;;;;;;;;;;;;5042570;28;19936;-61
2023/08/27 15:10:08;;;;;;;;;;;;;;;;;;5038028;28;19925;-61
2023/08/27 15:12:34;;;;;;;;;;;;;;;;;;5037774;28;19935;-61
2023/08/27 15:15:00;;;;;;;;;;;;;;;;;;5038616;28;19928;-61
2023/08/27 15:17:26;;;;;;;;;;;;;;;;;;5042475;28;20622;-61
2023/08/27 15:19:52;;;;;;;;;;;;;;;;;;5036636;28;20007;-61
2023/08/27 15:22:18;;;;;;;;;;;;;;;;;;5043846;28;20003;-61
2023/08/27 15:24:44;;;;;;;;;;;;;;;;;;5033421;28;19929;-61
2023/08/27 15:27:10;;;;;;;;;;;;;;;;;;5042771;28;20046;-60
2023/08/27 15:29:36;;;;;;;;;;;;;;;;;;5031080;28;19936;-61
2023/08/27 15:32:03;;;;;;;;;;;;;;;;;;5033237;28;19925;-61
2023/08/27 15:34:29;;;;;;;;;;;;;;;;;;5031754;28;19924;-61
2023/08/27 15:36:55;;;;;;;;;;;;;;;;;;5043471;28;20460;-60
2023/08/27 15:39:21;;;;;;;;;;;;;;;;;;5022707;28;20412;-61
2023/08/27 15:41:47;;;;;;;;;;;;;;;;;;5041677;28;19933;-60
2023/08/27 15:44:13;;;;;;;;;;;;;;;;;;5034518;28;19936;-60
2023/08/27 15:46:39;;;;;;;;;;;;;;;;;;5023694;28;19925;-61
2023/08/27 15:49:05;;;;;;;;;;;;;;;;;;5041827;28;19939;-60
2023/08/27 15:51:31;;;;;;;;;;;;;;;;;;5040152;28;20155;-60
2023/08/27 15:53:57;;;;;;;;;;;;;;;;;;5041928;28;20032;-61
2023/08/27 15:56:23;;;;;;;;;;;;;;;;;;5038975;28;20247;-60
2023/08/27 15:58:48;;;;;;;;;;;;;;;;;;5038665;28;19925;-61
2023/08/27 16:01:15;;;;;;;;;;;;;;;;;;5036972;28;19936;-61
2023/08/27 16:03:41;;;;;;;;;;;;;;;;;;5041060;28;19931;-61
2023/08/27 16:06:07;;;;;;;;;;;;;;;;;;5043942;28;19928;-61
2023/08/27 16:08:33;;;;;;;;;;;;;;;;;;5044150;28;19951;-62
2023/08/27 16:10:59;;;;;;;;;;;;;;;;;;5026715;28;19933;-60
2023/08/27 16:13:24;;;;;;;;;;;;;;;;;;5035102;28;19979;-61
2023/08/27 16:15:50;;;;;;;;;;;;;;;;;;5039477;28;20389;-61
2023/08/27 16:18:16;;;;;;;;;;;;;;;;;;5033296;28;19929;-61
2023/08/27 16:20:42;;;;;;;;;;;;;;;;;;5043904;28;19924;-61
2023/08/27 16:23:08;;;;;;;;;;;;;;;;;;5026193;28;20424;-61
2023/08/27 16:25:34;;;;;;;;;;;;;;;;;;5035473;28;19931;-61
2023/08/27 16:28:00;;;;;;;;;;;;;;;;;;5030661;28;19929;-62
2023/08/27 16:30:26;;;;;;;;;;;;;;;;;;5044568;28;19970;-62
2023/08/27 16:32:52;;;;;;;;;;;;;;;;;;5013953;28;19931;-61
2023/08/27 16:35:18;;;;;;;;;;;;;;;;;;5032139;28;19932;-61
2023/08/27 16:37:44;;;;;;;;;;;;;;;;;;5032178;28;19929;-61